Main page
METAR-TAF:

METAR-TAF

Airports :

Grove Municipal Airport

Grove, Oklahoma, United States

latitude: 36-36-19N, longitude: 094-44-19W, elevation: 833 ft

Current weather observation

The report was made 21 minutes ago, at 04:15 UTC
Wind 8 mph from the South
Temperature 55°F
Humidity 51%
Pressure 30.00 in. Hg
Visibility: 10 miles
Clear sky

METAR: KGMJ 230415Z AUTO 19007KT 10SM CLR 13/03 A3000 RMK AO2 TSNO

Time: 23:36 (04:36 UTC)


TAF: missing

Weather observations and forecasts of more than 4000 airports (METAR and TAF reports).

The available stations are represented by yellow and red dots on the map.

Hover mouse over dot to see the name of the station.

Then click to see weather observations and forecasts.

To change the map : click on the green buttons with a black cross to zoom in, on the green button with a dash to zoom out, or on the green arrows for adjacent maps.


METAR-TAF: